createdAt,value
2023-02-26T00:01:31.678Z,-0.92
2023-02-26T00:04:02.330Z,-0.72
2023-02-26T00:06:32.620Z,-0.72
2023-02-26T00:09:00.011Z,-0.59
2023-02-26T00:11:27.844Z,-0.67
2023-02-26T00:13:55.166Z,-0.57
2023-02-26T00:16:35.079Z,-0.64
2023-02-26T00:19:06.429Z,-0.70
2023-02-26T00:21:36.935Z,-0.64
2023-02-26T00:24:06.637Z,-0.86
2023-02-26T00:26:35.599Z,-0.64
2023-02-26T00:29:04.251Z,-0.67
2023-02-26T00:31:31.618Z,-0.58
2023-02-26T00:33:59.143Z,-0.66
2023-02-26T00:36:41.189Z,-0.54
2023-02-26T00:39:21.846Z,-0.51
2023-02-26T00:41:48.881Z,-0.55
2023-02-26T00:44:16.068Z,-0.54
2023-02-26T00:46:48.755Z,-0.62
2023-02-26T00:49:33.868Z,-0.70
2023-02-26T00:52:06.076Z,-0.77
2023-02-26T00:54:32.814Z,-0.91
2023-02-26T00:57:00.311Z,-1.01
2023-02-26T00:59:27.134Z,-0.97
2023-02-26T01:01:54.070Z,-1.07
2023-02-26T01:04:23.582Z,-1.13
2023-02-26T01:06:56.430Z,-1.04
2023-02-26T01:09:33.447Z,-1.13
2023-02-26T01:12:09.730Z,-1.22
2023-02-26T01:14:37.234Z,-1.15
2023-02-26T01:17:18.640Z,-1.13
2023-02-26T01:20:05.510Z,-1.33
2023-02-26T01:22:37.824Z,-1.37
2023-02-26T01:25:15.893Z,-1.20
2023-02-26T01:27:42.865Z,-1.35
2023-02-26T01:30:10.598Z,-1.28
2023-02-26T01:32:51.209Z,-1.22
2023-02-26T01:35:53.956Z,-1.33
2023-02-26T01:38:52.632Z,-1.35
2023-02-26T01:41:46.284Z,-1.27
2023-02-26T01:44:40.912Z,-1.21
2023-02-26T01:47:25.365Z,-1.25
2023-02-26T01:49:52.512Z,-1.29
2023-02-26T01:52:49.829Z,-1.42
2023-02-26T01:55:21.542Z,-1.33
2023-02-26T01:57:50.009Z,-1.51
2023-02-26T02:00:17.258Z,-1.36
2023-02-26T02:02:44.317Z,-1.41
2023-02-26T02:05:31.998Z,-1.47
2023-02-26T02:07:59.774Z,-1.46
2023-02-26T02:10:27.560Z,-1.46
2023-02-26T02:13:11.613Z,-1.37
2023-02-26T02:16:01.337Z,-1.36
2023-02-26T02:19:00.908Z,-1.51
2023-02-26T02:22:09.496Z,-1.36
2023-02-26T02:25:04.169Z,-1.35
2023-02-26T02:28:09.063Z,-1.48
2023-02-26T02:30:56.357Z,-1.50
2023-02-26T02:33:34.985Z,-1.63
2023-02-26T02:36:19.411Z,-1.52
2023-02-26T02:38:57.540Z,-1.62
2023-02-26T02:41:34.432Z,-1.55
2023-02-26T02:44:07.481Z,-1.56
2023-02-26T02:46:38.298Z,-1.53
2023-02-26T02:49:18.336Z,-1.56
2023-02-26T02:51:52.448Z,-1.45
2023-02-26T02:54:35.162Z,-1.65
2023-02-26T02:57:16.130Z,-1.83
2023-02-26T02:59:47.208Z,-1.60
2023-02-26T03:02:19.941Z,-1.76
2023-02-26T03:04:46.791Z,-1.55
2023-02-26T03:07:13.686Z,-1.61
2023-02-26T03:09:40.607Z,-1.46
2023-02-26T03:12:07.377Z,-1.47
2023-02-26T03:14:34.693Z,-1.55
2023-02-26T03:17:34.018Z,-1.51
2023-02-26T03:20:19.680Z,-1.51
2023-02-26T03:23:07.579Z,-1.49
2023-02-26T03:25:48.550Z,-1.52
2023-02-26T03:28:32.201Z,-1.46
2023-02-26T03:31:15.892Z,-1.54
2023-02-26T03:33:54.610Z,-1.51
2023-02-26T03:36:38.192Z,-1.59
2023-02-26T03:39:27.492Z,-1.64
2023-02-26T03:42:38.535Z,-1.57
2023-02-26T03:45:11.194Z,-1.53
2023-02-26T03:47:40.842Z,-1.56
2023-02-26T03:50:31.469Z,-1.48
2023-02-26T03:53:00.110Z,-1.66
2023-02-26T03:55:39.126Z,-1.70
2023-02-26T03:58:05.926Z,-1.73
2023-02-26T04:00:34.561Z,-1.66
2023-02-26T04:03:25.245Z,-1.61
2023-02-26T04:05:52.922Z,-1.56
2023-02-26T04:08:22.949Z,-1.64
2023-02-26T04:10:58.352Z,-1.66
2023-02-26T04:13:26.386Z,-1.73
2023-02-26T04:15:53.101Z,-1.76
2023-02-26T04:18:19.840Z,-1.59
2023-02-26T04:20:46.540Z,-1.76
2023-02-26T04:23:13.287Z,-1.85
2023-02-26T04:25:40.369Z,-1.80
2023-02-26T04:28:07.199Z,-1.86
2023-02-26T04:30:34.273Z,-1.80
2023-02-26T04:33:01.023Z,-1.62
2023-02-26T04:35:27.980Z,-1.59
2023-02-26T04:37:54.707Z,-1.61
2023-02-26T04:40:23.725Z,-1.72
2023-02-26T04:42:50.719Z,-1.68
2023-02-26T04:45:17.934Z,-1.69
2023-02-26T04:47:44.725Z,-1.68
2023-02-26T04:50:12.160Z,-1.78
2023-02-26T04:52:38.883Z,-1.74
2023-02-26T04:55:07.587Z,-1.73
2023-02-26T04:57:34.765Z,-1.62
2023-02-26T05:00:01.603Z,-1.69
2023-02-26T05:02:28.354Z,-1.72
2023-02-26T05:04:55.089Z,-1.86
2023-02-26T05:07:22.104Z,-1.90
2023-02-26T05:09:48.869Z,-1.94
2023-02-26T05:12:16.220Z,-1.94
2023-02-26T05:14:42.984Z,-1.94
2023-02-26T05:17:09.939Z,-2.04
2023-02-26T05:19:36.679Z,-1.80
2023-02-26T05:22:03.469Z,-1.85
2023-02-26T05:24:30.180Z,-1.90
2023-02-26T05:26:56.910Z,-1.85
2023-02-26T05:29:23.730Z,-2.01
2023-02-26T05:31:50.584Z,-2.24
2023-02-26T05:34:17.369Z,-2.16
2023-02-26T05:36:44.081Z,-2.27
2023-02-26T05:39:10.938Z,-2.32
2023-02-26T05:41:37.672Z,-2.22
2023-02-26T05:44:04.504Z,-2.32
2023-02-26T05:46:31.274Z,-2.34
2023-02-26T05:48:57.986Z,-2.18
2023-02-26T05:51:24.716Z,-2.34
2023-02-26T05:53:51.485Z,-2.47
2023-02-26T05:56:18.244Z,-2.52
2023-02-26T05:58:45.411Z,-2.57
2023-02-26T06:01:12.163Z,-2.62
2023-02-26T06:03:44.144Z,-2.57
2023-02-26T06:06:12.742Z,-2.69
2023-02-26T06:08:39.523Z,-2.70
2023-02-26T06:11:06.534Z,-2.88
2023-02-26T06:13:33.452Z,-2.82
2023-02-26T06:16:00.237Z,-2.88
2023-02-26T06:18:27.099Z,-2.90
2023-02-26T06:20:54.003Z,-2.93
2023-02-26T06:23:21.204Z,-2.87
2023-02-26T06:25:47.921Z,-2.88
2023-02-26T06:28:14.652Z,-2.96
2023-02-26T06:30:41.693Z,-2.98
2023-02-26T06:33:08.461Z,-2.98
2023-02-26T06:35:35.235Z,-3.05
2023-02-26T06:38:02.009Z,-3.03
2023-02-26T06:40:29.056Z,-3.28
2023-02-26T06:42:55.822Z,-3.43
2023-02-26T06:45:25.254Z,-3.44
2023-02-26T06:47:52.169Z,-3.40
2023-02-26T06:50:19.019Z,-3.38
2023-02-26T06:52:45.822Z,-3.46
2023-02-26T06:55:12.695Z,-3.38
2023-02-26T06:57:39.727Z,-3.44
2023-02-26T07:00:08.712Z,-3.44
2023-02-26T07:02:35.631Z,-3.44
2023-02-26T07:05:02.468Z,-3.48
2023-02-26T07:07:29.199Z,-3.40
2023-02-26T07:09:55.983Z,-3.53
2023-02-26T07:12:22.706Z,-3.42
2023-02-26T07:14:49.507Z,-3.39
2023-02-26T07:17:20.613Z,-3.34
2023-02-26T07:19:52.409Z,-3.30
2023-02-26T07:22:22.086Z,-3.34
2023-02-26T07:24:50.081Z,-3.23
2023-02-26T07:27:17.057Z,-3.28
2023-02-26T07:29:43.767Z,-3.20
2023-02-26T07:32:10.535Z,-3.30
2023-02-26T07:34:37.315Z,-3.18
2023-02-26T07:37:04.111Z,-3.18
2023-02-26T07:39:31.127Z,-3.30
2023-02-26T07:41:57.864Z,-3.05
2023-02-26T07:44:24.653Z,-3.09
2023-02-26T07:46:51.377Z,-3.21
2023-02-26T07:49:18.245Z,-3.09
2023-02-26T07:51:46.085Z,-3.11
2023-02-26T07:54:13.498Z,-2.91
2023-02-26T07:56:41.436Z,-2.89
2023-02-26T07:59:08.373Z,-2.88
2023-02-26T08:01:36.004Z,-2.74
2023-02-26T08:04:03.084Z,-2.74
2023-02-26T08:06:30.287Z,-2.47
2023-02-26T08:08:57.056Z,-2.51
2023-02-26T08:11:23.792Z,-2.50
2023-02-26T08:13:50.644Z,-2.35
2023-02-26T08:16:17.548Z,-2.41
2023-02-26T08:18:44.350Z,-2.42
2023-02-26T08:21:11.771Z,-2.43
2023-02-26T08:23:38.759Z,-2.55
2023-02-26T08:26:09.220Z,-2.44
2023-02-26T08:28:37.059Z,-2.21
2023-02-26T08:31:04.297Z,-2.13
2023-02-26T08:33:31.653Z,-1.97
2023-02-26T08:35:59.228Z,-2.01
2023-02-26T08:38:28.010Z,-1.83
2023-02-26T08:40:55.235Z,-1.70
2023-02-26T08:43:22.029Z,-1.57
2023-02-26T08:45:49.758Z,-1.57
2023-02-26T08:48:16.573Z,-1.67
2023-02-26T08:50:43.444Z,-1.94
2023-02-26T08:53:10.151Z,-1.89
2023-02-26T08:55:37.251Z,-1.83
2023-02-26T08:58:04.704Z,-1.95
2023-02-26T09:00:31.881Z,-1.95
2023-02-26T09:02:58.618Z,-1.89
2023-02-26T09:05:25.471Z,-1.68
2023-02-26T09:07:52.250Z,-1.83
2023-02-26T09:10:19.086Z,-1.72
2023-02-26T09:12:46.992Z,-2.05
2023-02-26T09:15:14.850Z,-1.93
2023-02-26T09:17:42.541Z,-1.85
2023-02-26T09:20:10.932Z,-1.82
2023-02-26T09:22:38.116Z,-1.70
2023-02-26T09:25:06.285Z,-1.70
2023-02-26T09:27:34.297Z,-1.73
2023-02-26T09:30:01.200Z,-1.71
2023-02-26T09:32:28.069Z,-1.70
2023-02-26T09:34:54.836Z,-1.82
2023-02-26T09:37:21.696Z,-1.91
2023-02-26T09:39:48.423Z,-1.84
2023-02-26T09:42:45.718Z,-1.83
2023-02-26T09:45:38.669Z,-1.83
2023-02-26T09:48:06.984Z,-1.55
2023-02-26T09:50:52.561Z,-1.64
2023-02-26T09:53:31.612Z,-1.55
2023-02-26T09:56:20.125Z,-1.47
2023-02-26T09:58:47.382Z,-1.33
2023-02-26T10:01:32.627Z,-1.26
2023-02-26T10:04:12.061Z,-1.36
2023-02-26T10:07:11.160Z,-1.38
2023-02-26T10:09:49.916Z,-1.30
2023-02-26T10:12:21.723Z,-1.44
2023-02-26T10:15:16.213Z,-1.38
2023-02-26T10:18:07.395Z,-1.24
2023-02-26T10:20:59.200Z,-1.06
2023-02-26T10:24:04.567Z,-0.94
2023-02-26T10:26:40.753Z,-0.87
2023-02-26T10:29:36.981Z,-0.72
2023-02-26T10:32:46.880Z,-0.72
2023-02-26T10:35:19.000Z,-0.62
2023-02-26T10:37:56.542Z,-0.67
2023-02-26T10:41:09.336Z,-0.70
2023-02-26T10:43:40.613Z,-0.52
2023-02-26T10:46:23.272Z,-0.57
2023-02-26T10:49:04.218Z,-0.64
2023-02-26T10:51:39.853Z,-0.64
2023-02-26T10:54:39.178Z,-0.87
2023-02-26T10:57:19.406Z,-0.74
2023-02-26T10:59:46.187Z,-0.64
2023-02-26T11:02:34.914Z,-0.91
2023-02-26T11:05:07.843Z,-0.86
2023-02-26T11:07:37.339Z,-0.76
2023-02-26T11:10:04.753Z,-1.10
2023-02-26T11:12:32.888Z,-0.98
2023-02-26T11:15:01.276Z,-0.90
2023-02-26T11:17:32.569Z,-0.86
2023-02-26T11:20:05.456Z,-0.59
2023-02-26T11:22:37.356Z,-0.64
2023-02-26T11:25:05.502Z,-0.61
2023-02-26T11:27:37.364Z,-0.39
2023-02-26T11:30:18.002Z,-0.58
2023-02-26T11:32:46.713Z,-0.63
2023-02-26T11:35:15.580Z,-0.51
2023-02-26T11:37:49.155Z,-0.51
2023-02-26T11:40:34.477Z,-0.62
2023-02-26T11:43:06.912Z,-0.64
2023-02-26T11:45:37.284Z,-0.63
2023-02-26T11:48:14.992Z,-0.54
2023-02-26T11:50:46.800Z,-0.54
2023-02-26T11:53:25.705Z,-0.45
2023-02-26T11:55:54.140Z,-0.57
2023-02-26T11:58:24.572Z,-0.64
2023-02-26T12:00:59.011Z,-0.82
2023-02-26T12:03:34.902Z,-0.72
2023-02-26T12:06:02.898Z,-0.71
2023-02-26T12:08:42.333Z,-0.85
2023-02-26T12:11:43.947Z,-0.63
2023-02-26T12:14:26.214Z,-0.61
2023-02-26T12:17:33.174Z,-0.72
2023-02-26T12:20:20.091Z,-0.69
2023-02-26T12:23:07.973Z,-0.78
2023-02-26T12:26:08.682Z,-0.55
2023-02-26T12:29:18.443Z,-0.41
2023-02-26T12:32:20.342Z,-0.30
2023-02-26T12:35:12.508Z,-0.01
2023-02-26T12:37:57.190Z,0.01
2023-02-26T12:41:09.064Z,0.04
2023-02-26T12:43:49.370Z,0.29
2023-02-26T12:46:46.684Z,0.32
2023-02-26T12:49:35.158Z,0.39
2023-02-26T12:52:20.037Z,0.45
2023-02-26T12:55:37.999Z,0.43
2023-02-26T12:58:44.506Z,0.19
2023-02-26T13:01:35.853Z,0.14
2023-02-26T13:04:23.483Z,0.12
2023-02-26T13:07:36.435Z,0.15
2023-02-26T13:10:33.144Z,0.09
2023-02-26T13:13:44.991Z,-0.17
2023-02-26T13:16:47.345Z,0.12
2023-02-26T13:19:31.100Z,0.02
2023-02-26T13:22:21.880Z,0.06
2023-02-26T13:25:12.968Z,-0.08
2023-02-26T13:27:41.503Z,0.09
2023-02-26T13:30:37.343Z,0.35
2023-02-26T13:33:04.547Z,0.46
2023-02-26T13:35:38.912Z,0.86
2023-02-26T13:38:33.071Z,0.79
2023-02-26T13:41:09.886Z,0.22
2023-02-26T13:44:04.180Z,-0.05
2023-02-26T13:47:05.843Z,-0.39
2023-02-26T13:49:57.892Z,-0.17
2023-02-26T13:52:31.531Z,-0.20
2023-02-26T13:54:59.552Z,-0.05
2023-02-26T13:57:54.224Z,0.10
2023-02-26T14:00:37.439Z,0.27
2023-02-26T14:03:32.580Z,0.67
2023-02-26T14:06:26.700Z,0.78
2023-02-26T14:08:57.530Z,0.46
2023-02-26T14:11:34.875Z,0.70
2023-02-26T14:14:22.295Z,0.72
2023-02-26T14:17:09.435Z,0.75
2023-02-26T14:20:01.954Z,0.73
2023-02-26T14:22:31.646Z,0.85
2023-02-26T14:25:13.101Z,0.90
2023-02-26T14:27:42.970Z,0.82
2023-02-26T14:30:09.673Z,0.78
2023-02-26T14:32:48.496Z,0.54
2023-02-26T14:35:26.558Z,0.18
2023-02-26T14:38:03.777Z,0.12
2023-02-26T14:40:40.078Z,0.05
2023-02-26T14:43:16.964Z,0.06
2023-02-26T14:45:46.058Z,0.19
2023-02-26T14:48:19.037Z,0.04
2023-02-26T14:51:02.046Z,-0.06
2023-02-26T14:53:52.718Z,0.04
2023-02-26T14:57:18.827Z,0.13
2023-02-26T14:59:54.693Z,0.21
2023-02-26T15:02:38.196Z,0.34
2023-02-26T15:05:41.719Z,0.03
2023-02-26T15:08:36.405Z,0.39
2023-02-26T15:11:51.629Z,0.50
2023-02-26T15:14:33.496Z,0.21
2023-02-26T15:17:40.146Z,0.16
2023-02-26T15:20:27.056Z,0.36
2023-02-26T15:23:44.100Z,0.15
2023-02-26T15:26:20.351Z,-0.32
2023-02-26T15:28:47.729Z,-0.19
2023-02-26T15:31:14.620Z,-0.34
2023-02-26T15:33:42.334Z,-0.54
2023-02-26T15:36:18.011Z,-0.56
2023-02-26T15:39:00.441Z,-0.72
2023-02-26T15:41:30.500Z,-0.91
2023-02-26T15:44:24.286Z,-0.64
2023-02-26T15:46:57.397Z,-0.57
2023-02-26T15:49:30.621Z,-0.48
2023-02-26T15:51:59.292Z,-0.20
2023-02-26T15:54:42.401Z,-0.32
2023-02-26T15:57:11.874Z,-0.19
2023-02-26T15:59:45.916Z,0.04
2023-02-26T16:02:20.733Z,-0.07
2023-02-26T16:04:47.725Z,-0.03
2023-02-26T16:07:15.052Z,-0.20
2023-02-26T16:09:47.394Z,-0.14
2023-02-26T16:12:22.674Z,-0.19
2023-02-26T16:14:59.989Z,-0.10
2023-02-26T16:17:32.538Z,-0.32
2023-02-26T16:20:04.924Z,-0.21
2023-02-26T16:22:44.460Z,-0.40
2023-02-26T16:25:24.991Z,-0.47
2023-02-26T16:28:01.143Z,-0.46
2023-02-26T16:30:36.071Z,-0.46
2023-02-26T16:33:05.858Z,-0.44
2023-02-26T16:35:38.737Z,-0.46
2023-02-26T16:38:24.667Z,-0.48
2023-02-26T16:41:07.312Z,-0.46
2023-02-26T16:43:47.779Z,-0.64
2023-02-26T16:46:18.211Z,-0.47
2023-02-26T16:48:53.166Z,-0.56
2023-02-26T16:51:26.561Z,-0.74
2023-02-26T16:53:59.612Z,-0.68
2023-02-26T16:56:33.647Z,-0.96
2023-02-26T16:59:14.350Z,-0.87
2023-02-26T17:01:56.877Z,-0.86
2023-02-26T17:04:34.802Z,-0.89
2023-02-26T17:07:06.046Z,-0.83
2023-02-26T17:09:50.070Z,-0.82
2023-02-26T17:12:42.671Z,-0.87
2023-02-26T17:15:26.883Z,-0.78
2023-02-26T17:17:56.808Z,-0.76
2023-02-26T17:20:28.744Z,-0.84
2023-02-26T17:22:56.398Z,-0.98
2023-02-26T17:25:25.390Z,-1.01
2023-02-26T17:27:52.615Z,-0.90
2023-02-26T17:30:24.190Z,-1.15
2023-02-26T17:32:51.076Z,-1.25
2023-02-26T17:35:19.266Z,-1.12
2023-02-26T17:37:49.183Z,-1.14
2023-02-26T17:40:24.236Z,-1.23
2023-02-26T17:42:52.120Z,-1.31
2023-02-26T17:45:20.572Z,-1.18
2023-02-26T17:47:49.069Z,-1.23
2023-02-26T17:50:33.772Z,-1.42
2023-02-26T17:53:00.798Z,-1.59
2023-02-26T17:55:27.612Z,-1.41
2023-02-26T17:57:56.411Z,-1.36
2023-02-26T18:00:23.542Z,-1.36
2023-02-26T18:02:53.235Z,-1.16
2023-02-26T18:05:20.566Z,-1.27
2023-02-26T18:07:49.792Z,-1.26
2023-02-26T18:10:24.586Z,-1.32
2023-02-26T18:12:51.869Z,-1.57
2023-02-26T18:15:18.701Z,-1.56
2023-02-26T18:17:45.485Z,-1.46
2023-02-26T18:20:19.737Z,-1.62
2023-02-26T18:22:48.047Z,-1.37
2023-02-26T18:25:15.726Z,-1.34
2023-02-26T18:27:44.154Z,-1.51
2023-02-26T18:30:22.842Z,-1.38
2023-02-26T18:32:49.726Z,-1.35
2023-02-26T18:35:18.009Z,-1.48
2023-02-26T18:37:45.861Z,-1.45
2023-02-26T18:40:15.913Z,-1.35
2023-02-26T18:42:42.932Z,-1.40
2023-02-26T18:45:11.610Z,-1.42
2023-02-26T18:47:39.164Z,-1.43
2023-02-26T18:50:08.313Z,-1.33
2023-02-26T18:52:35.859Z,-1.26
2023-02-26T18:55:03.187Z,-1.48
2023-02-26T18:57:30.588Z,-1.47
2023-02-26T18:59:57.412Z,-1.49
2023-02-26T19:02:24.736Z,-1.43
2023-02-26T19:04:52.500Z,-1.24
2023-02-26T19:07:19.505Z,-1.55
2023-02-26T19:09:46.252Z,-1.49
2023-02-26T19:12:18.835Z,-1.55
2023-02-26T19:14:45.809Z,-1.58
2023-02-26T19:17:12.569Z,-1.61
2023-02-26T19:19:42.595Z,-1.47
2023-02-26T19:22:10.880Z,-1.44
2023-02-26T19:24:38.088Z,-1.35
2023-02-26T19:27:05.039Z,-1.39
2023-02-26T19:29:33.984Z,-1.57
2023-02-26T19:32:01.488Z,-1.58
2023-02-26T19:34:28.490Z,-1.43
2023-02-26T19:36:56.297Z,-1.36
2023-02-26T19:39:24.344Z,-1.34
2023-02-26T19:41:54.548Z,-1.37
2023-02-26T19:44:22.834Z,-1.68
2023-02-26T19:46:50.659Z,-1.46
2023-02-26T19:49:18.916Z,-1.29
2023-02-26T19:51:45.737Z,-1.43
2023-02-26T19:54:15.190Z,-1.49
2023-02-26T19:56:43.367Z,-1.45
2023-02-26T19:59:10.589Z,-1.42
2023-02-26T20:01:37.560Z,-1.66
2023-02-26T20:04:04.404Z,-1.47
2023-02-26T20:06:31.351Z,-1.36
2023-02-26T20:08:58.107Z,-1.45
2023-02-26T20:11:26.290Z,-1.16
2023-02-26T20:13:53.410Z,-1.27
2023-02-26T20:16:20.311Z,-1.25
2023-02-26T20:18:47.130Z,-1.43
2023-02-26T20:21:14.169Z,-1.54
2023-02-26T20:23:41.027Z,-1.52
2023-02-26T20:26:12.259Z,-1.36
2023-02-26T20:28:40.050Z,-1.44
2023-02-26T20:31:07.436Z,-1.56
2023-02-26T20:33:36.214Z,-1.56
2023-02-26T20:36:04.062Z,-1.60
2023-02-26T20:38:30.983Z,-1.62
2023-02-26T20:40:57.922Z,-1.53
2023-02-26T20:43:25.458Z,-1.41
2023-02-26T20:45:54.098Z,-1.56
2023-02-26T20:48:21.598Z,-1.57
2023-02-26T20:50:49.653Z,-1.59
2023-02-26T20:53:16.421Z,-1.76
2023-02-26T20:55:43.262Z,-1.62
2023-02-26T20:58:10.166Z,-1.67
2023-02-26T21:00:37.063Z,-1.61
2023-02-26T21:03:03.910Z,-1.58
2023-02-26T21:05:30.681Z,-1.67
2023-02-26T21:07:57.440Z,-1.85
2023-02-26T21:10:24.207Z,-1.73
2023-02-26T21:12:51.816Z,-1.71
2023-02-26T21:15:18.997Z,-1.64
2023-02-26T21:17:45.985Z,-1.72
2023-02-26T21:20:18.130Z,-1.65
2023-02-26T21:22:46.498Z,-1.73
2023-02-26T21:25:13.877Z,-1.64
2023-02-26T21:27:41.159Z,-1.69
2023-02-26T21:30:10.836Z,-1.72
2023-02-26T21:32:39.024Z,-1.98
2023-02-26T21:35:07.582Z,-1.95
2023-02-26T21:37:34.554Z,-1.81
2023-02-26T21:40:01.359Z,-1.74
2023-02-26T21:42:28.410Z,-1.74
2023-02-26T21:44:55.156Z,-1.76
2023-02-26T21:47:21.991Z,-1.87
2023-02-26T21:49:48.733Z,-1.91
2023-02-26T21:52:15.600Z,-1.99
2023-02-26T21:54:42.532Z,-2.03
2023-02-26T21:57:09.464Z,-2.04
2023-02-26T21:59:36.445Z,-2.05
2023-02-26T22:02:04.034Z,-1.95
2023-02-26T22:04:31.157Z,-1.90
2023-02-26T22:06:57.912Z,-2.02
2023-02-26T22:09:24.726Z,-1.98
2023-02-26T22:11:51.491Z,-1.86
2023-02-26T22:14:18.304Z,-1.97
2023-02-26T22:16:45.120Z,-1.90
2023-02-26T22:19:11.954Z,-1.75
2023-02-26T22:21:38.730Z,-1.94
2023-02-26T22:24:06.452Z,-1.88
2023-02-26T22:26:33.248Z,-1.96
2023-02-26T22:29:00.936Z,-1.74
2023-02-26T22:31:29.645Z,-1.77
2023-02-26T22:33:57.468Z,-1.94
2023-02-26T22:36:25.235Z,-1.86
2023-02-26T22:38:52.033Z,-2.07
2023-02-26T22:41:18.886Z,-2.09
2023-02-26T22:43:45.644Z,-1.82
2023-02-26T22:46:12.454Z,-1.85
2023-02-26T22:48:39.232Z,-1.69
2023-02-26T22:51:06.073Z,-1.85
2023-02-26T22:53:32.947Z,-2.02
2023-02-26T22:55:59.727Z,-2.03
2023-02-26T22:58:26.518Z,-2.00
2023-02-26T23:01:05.226Z,-1.98
2023-02-26T23:03:32.718Z,-2.13
2023-02-26T23:06:00.119Z,-2.12
2023-02-26T23:08:27.562Z,-1.97
2023-02-26T23:10:57.252Z,-1.93
2023-02-26T23:13:25.178Z,-2.20
2023-02-26T23:15:52.335Z,-2.08
2023-02-26T23:18:19.399Z,-1.86
2023-02-26T23:20:48.084Z,-2.00
2023-02-26T23:23:15.585Z,-2.22
2023-02-26T23:25:43.788Z,-2.15
2023-02-26T23:28:11.937Z,-2.13
2023-02-26T23:30:39.414Z,-2.17
2023-02-26T23:33:07.407Z,-2.24
2023-02-26T23:35:35.561Z,-2.15
2023-02-26T23:38:03.273Z,-2.24
2023-02-26T23:40:30.461Z,-2.30
2023-02-26T23:42:57.291Z,-2.14
2023-02-26T23:45:24.598Z,-2.17
2023-02-26T23:47:51.720Z,-2.41
2023-02-26T23:50:18.548Z,-2.08
2023-02-26T23:52:45.362Z,-2.08
2023-02-26T23:55:12.827Z,-2.30
2023-02-26T23:57:39.668Z,-2.42
